Time;durP1;ratioP1;P1;durP2;ratioP2;P2;SDS_P1;SDS_P2;PMS_P1;PMS_P2;Temp;Humidity;BMP_temperature;BMP_pressure;BME280_temperature;BME280_humidity;BME280_pressure;Samples;Min_cycle;Max_cycle;Signal;HPM_P1;HPM_P2
2022/04/02 00:01:23;;;;;;;1.50;0.70;;;17.50;76.10;;;;;;5151716;27;20465;-72
2022/04/02 00:03:51;;;;;;;3.95;1.10;;;17.50;76.00;;;;;;5132533;27;20066;-72
2022/04/02 00:06:18;;;;;;;2.42;1.05;;;17.60;76.00;;;;;;5124608;27;20062;-71
2022/04/02 00:08:45;;;;;;;5.15;1.00;;;17.60;75.50;;;;;;5126602;27;20356;-72
2022/04/02 00:11:12;;;;;;;4.43;0.70;;;17.70;75.30;;;;;;5133293;27;20067;-71
2022/04/02 00:13:40;;;;;;;3.50;0.98;;;17.70;75.10;;;;;;5133043;27;20038;-71
2022/04/02 00:16:07;;;;;;;3.33;1.00;;;17.70;75.30;;;;;;5133460;27;20126;-71
2022/04/02 00:18:35;;;;;;;6.68;1.08;;;17.70;75.60;;;;;;5126273;27;20500;-72
2022/04/02 00:21:02;;;;;;;1.60;0.70;;;17.80;75.80;;;;;;5121024;28;20036;-72
2022/04/02 00:23:43;;;;;;;2.17;0.80;;;17.80;75.30;;;;;;5094834;28;20511;-72
2022/04/02 00:26:15;;;;;;;3.20;1.10;;;17.80;74.30;;;;;;5130072;28;20115;-72
2022/04/02 00:28:44;;;;;;;4.60;1.00;;;17.80;75.00;;;;;;5112684;28;20388;-76
2022/04/02 00:31:15;;;;;;;3.58;1.05;;;17.80;74.90;;;;;;5127049;28;20478;-75
2022/04/02 00:33:43;;;;;;;3.10;1.10;;;17.80;75.40;;;;;;5108736;28;20049;-72
2022/04/02 00:36:11;;;;;;;4.25;1.02;;;17.80;75.10;;;;;;5089505;28;20492;-71
2022/04/02 00:38:42;;;;;;;3.67;0.90;;;17.80;75.00;;;;;;5104552;28;20423;-73
2022/04/02 00:41:09;;;;;;;4.85;1.10;;;17.90;75.40;;;;;;5126194;28;20015;-73
2022/04/02 00:43:44;;;;;;;2.72;1.10;;;17.90;75.50;;;;;;5106736;28;20016;-73
2022/04/02 00:46:12;;;;;;;2.97;1.10;;;18.00;75.00;;;;;;5093476;28;20028;-72
2022/04/02 00:48:40;;;;;;;3.28;1.00;;;18.00;75.60;;;;;;5110511;27;20363;-71
2022/04/02 00:51:08;;;;;;;2.58;1.02;;;18.10;75.60;;;;;;5108662;27;20084;-73
2022/04/02 00:53:40;;;;;;;2.85;1.08;;;18.20;74.80;;;;;;5127343;27;20047;-73
2022/04/02 00:56:07;;;;;;;1.63;0.73;;;18.20;75.00;;;;;;5109620;28;20031;-72
2022/04/02 00:58:34;;;;;;;4.03;1.00;;;18.30;74.10;;;;;;5109283;27;20114;-72
2022/04/02 01:01:01;;;;;;;6.82;2.30;;;18.30;74.60;;;;;;5124504;27;20035;-73
2022/04/02 01:03:28;;;;;;;5.95;1.58;;;18.30;75.40;;;;;;5098126;28;20040;-73
2022/04/02 01:05:56;;;;;;;1.80;1.00;;;18.30;74.30;;;;;;5081392;27;20076;-73
2022/04/02 01:08:23;;;;;;;11.05;1.65;;;18.30;73.30;;;;;;5089702;28;20485;-73
2022/04/02 01:10:50;;;;;;;1.98;1.13;;;18.30;73.80;;;;;;5073618;28;20040;-73
2022/04/02 01:13:17;;;;;;;4.80;0.90;;;18.30;73.00;;;;;;5113291;27;20047;-73
2022/04/02 01:15:45;;;;;;;1.75;0.68;;;18.30;73.20;;;;;;5130599;27;20035;-73
2022/04/02 01:18:12;;;;;;;2.28;0.60;;;18.30;73.00;;;;;;5112624;27;20071;-75
2022/04/02 01:20:39;;;;;;;0.68;0.43;;;18.30;72.00;;;;;;5130744;27;20031;-75
2022/04/02 01:23:08;;;;;;;2.15;0.80;;;18.30;72.60;;;;;;5079155;27;20496;-75
2022/04/02 01:25:36;;;;;;;2.97;0.90;;;18.30;73.10;;;;;;5131744;27;20023;-74
2022/04/02 01:28:03;;;;;;;2.70;0.60;;;18.40;72.90;;;;;;5096628;27;20047;-73
2022/04/02 01:30:31;;;;;;;1.63;0.70;;;18.40;72.40;;;;;;5114509;27;20112;-73
2022/04/02 02:40:36;;;;;;;0.43;0.40;;;18.80;72.70;;;;;;5116848;27;20532;-74
2022/04/02 02:43:03;;;;;;;0.73;0.40;;;18.80;71.80;;;;;;5094320;27;20035;-74
2022/04/02 02:45:33;;;;;;;0.52;0.45;;;18.80;72.30;;;;;;5114200;27;20034;-74
2022/04/02 02:48:01;;;;;;;1.60;0.47;;;18.80;71.60;;;;;;5094169;28;20055;-74
2022/04/02 02:50:28;;;;;;;0.75;0.50;;;18.80;71.30;;;;;;5103548;27;20022;-74
2022/04/02 02:52:55;;;;;;;0.70;0.50;;;18.80;71.10;;;;;;5111339;28;20440;-74
2022/04/02 02:55:22;;;;;;;2.53;0.50;;;18.80;71.60;;;;;;5109945;28;20035;-74
2022/04/02 02:57:49;;;;;;;2.60;0.70;;;19.00;70.10;;;;;;5110038;28;20115;-74
2022/04/02 03:00:19;;;;;;;2.42;0.52;;;19.00;69.80;;;;;;5111463;28;20043;-74
2022/04/02 03:02:46;;;;;;;0.30;0.28;;;18.90;70.20;;;;;;5102721;27;20389;-75
2022/04/02 03:05:15;;;;;;;0.22;0.22;;;19.00;69.40;;;;;;5075856;28;20379;-74
2022/04/02 03:07:53;;;;;;;1.02;0.50;;;19.00;69.70;;;;;;5073698;27;20035;-74
2022/04/02 03:10:30;;;;;;;1.05;0.50;;;19.00;69.20;;;;;;5107342;27;20027;-74
2022/04/02 03:12:58;;;;;;;3.85;0.50;;;19.20;69.70;;;;;;5108618;28;20473;-75
2022/04/02 03:15:26;;;;;;;0.28;0.20;;;19.20;69.80;;;;;;5100308;27;20035;-75
2022/04/02 03:17:53;;;;;;;3.75;0.47;;;19.20;69.90;;;;;;5076037;28;20126;-74
2022/04/02 03:20:21;;;;;;;1.10;0.30;;;19.20;69.60;;;;;;5102929;28;20039;-74
2022/04/02 03:22:51;;;;;;;0.20;0.20;;;19.20;69.00;;;;;;5115618;27;20489;-73
2022/04/02 03:25:20;;;;;;;1.08;0.50;;;19.20;69.10;;;;;;5088003;28;20036;-74
2022/04/02 03:27:47;;;;;;;0.85;0.55;;;19.20;69.20;;;;;;5091764;28;20397;-75
2022/04/02 03:30:16;;;;;;;0.20;0.20;;;19.10;69.20;;;;;;5103825;27;20035;-74
2022/04/02 03:32:43;;;;;;;0.45;0.30;;;19.10;69.10;;;;;;5115471;27;20027;-74
2022/04/02 03:35:14;;;;;;;3.00;0.32;;;19.10;69.30;;;;;;5105457;27;20043;-74
2022/04/02 03:37:42;;;;;;;3.72;0.50;;;19.20;70.00;;;;;;5083560;28;20030;-75
2022/04/02 04:12:30;;;;;;;0.50;0.30;;;19.40;68.40;;;;;;5086560;28;20593;-74
2022/04/02 04:14:57;;;;;;;0.32;0.20;;;19.40;68.10;;;;;;5087594;28;20055;-73
2022/04/02 04:17:25;;;;;;;0.63;0.47;;;19.40;67.80;;;;;;5087981;28;20036;-74
2022/04/02 04:19:52;;;;;;;0.65;0.50;;;19.30;68.10;;;;;;5088593;28;20042;-74
2022/04/02 04:22:20;;;;;;;1.58;0.45;;;19.40;68.40;;;;;;5072661;28;20035;-73
2022/04/02 04:24:47;;;;;;;0.70;0.30;;;19.40;68.80;;;;;;5080207;28;20032;-73
2022/04/02 04:27:15;;;;;;;0.88;0.40;;;19.40;67.60;;;;;;5072215;28;20053;-74
2022/04/02 04:29:42;;;;;;;0.13;0.13;;;19.40;67.90;;;;;;5043910;28;20035;-74
2022/04/02 04:32:09;;;;;;;0.47;0.40;;;19.40;68.10;;;;;;5075568;28;20085;-72
2022/04/02 04:34:36;;;;;;;1.33;0.70;;;19.40;68.20;;;;;;5074340;28;20052;-74
2022/04/02 04:37:04;;;;;;;1.15;0.40;;;19.50;68.80;;;;;;5092790;28;20028;-72
2022/04/02 04:39:31;;;;;;;1.67;0.47;;;19.60;67.50;;;;;;5074192;28;20039;-73
2022/04/02 04:41:58;;;;;;;1.73;0.57;;;19.60;66.80;;;;;;5079548;28;20035;-73
2022/04/02 04:44:26;;;;;;;1.00;0.50;;;19.60;66.20;;;;;;5112350;28;20050;-75
2022/04/02 04:46:53;;;;;;;1.08;0.30;;;19.60;67.10;;;;;;5112775;28;20024;-75
2022/04/02 04:49:21;;;;;;;3.00;0.57;;;19.70;65.90;;;;;;5111977;28;20031;-75
2022/04/02 04:51:48;;;;;;;0.35;0.25;;;19.60;65.60;;;;;;5096871;28;20036;-75
2022/04/02 04:54:15;;;;;;;0.88;0.40;;;19.60;66.00;;;;;;5053585;28;20045;-75
2022/04/02 04:56:42;;;;;;;2.50;0.52;;;19.60;65.90;;;;;;5072412;28;20039;-75
2022/04/02 04:59:09;;;;;;;0.30;0.30;;;19.50;66.20;;;;;;5072109;28;20111;-76
2022/04/02 05:01:36;;;;;;;0.50;0.50;;;19.50;66.80;;;;;;5064880;28;20032;-75
2022/04/02 05:04:06;;;;;;;1.17;0.50;;;19.50;66.80;;;;;;5087812;28;20032;-75
2022/04/02 05:06:34;;;;;;;1.27;0.40;;;19.50;66.80;;;;;;5055953;28;20055;-76
2022/04/02 05:09:02;;;;;;;0.85;0.60;;;19.50;66.00;;;;;;5085674;28;20028;-75
2022/04/02 05:11:30;;;;;;;1.10;0.43;;;19.50;66.10;;;;;;5094042;28;20037;-76
2022/04/02 05:13:57;;;;;;;1.30;0.43;;;19.40;66.50;;;;;;5038914;28;20045;-75
2022/04/02 05:16:24;;;;;;;0.63;0.30;;;19.50;66.40;;;;;;5054836;28;20119;-75
2022/04/02 05:18:51;;;;;;;3.17;0.63;;;19.40;65.90;;;;;;5071765;28;20047;-75
2022/04/02 05:21:19;;;;;;;1.27;0.52;;;19.40;66.40;;;;;;5035126;28;20039;-75
2022/04/02 05:23:46;;;;;;;2.70;0.70;;;19.40;67.30;;;;;;5042584;28;20108;-75
2022/04/02 05:26:13;;;;;;;1.08;0.98;;;19.50;67.30;;;;;;5051037;28;20110;-75
2022/04/02 05:28:40;;;;;;;1.60;1.00;;;19.50;66.80;;;;;;5072421;28;20028;-75
2022/04/02 05:31:08;;;;;;;3.40;1.40;;;19.60;67.20;;;;;;5053895;28;20136;-75
2022/04/02 05:33:35;;;;;;;2.55;1.50;;;19.70;65.70;;;;;;5071886;28;20040;-75
2022/04/02 05:36:03;;;;;;;1.77;1.20;;;19.70;65.70;;;;;;5072257;28;20036;-75
2022/04/02 05:38:30;;;;;;;3.67;2.17;;;19.60;65.90;;;;;;5072194;28;20120;-75
2022/04/02 05:40:57;;;;;;;3.38;1.90;;;19.70;65.80;;;;;;5076057;28;20115;-75
2022/04/02 05:43:24;;;;;;;2.10;1.90;;;19.70;65.80;;;;;;5071822;28;20021;-71
2022/04/02 05:45:52;;;;;;;68.60;34.47;;;19.70;66.50;;;;;;5072881;28;20050;-74
2022/04/02 05:48:20;;;;;;;13.98;7.88;;;19.70;66.00;;;;;;5072332;28;20454;-74
2022/04/02 05:50:47;;;;;;;1.95;1.35;;;19.70;65.40;;;;;;5054212;28;20032;-74
2022/04/02 05:53:15;;;;;;;1.70;1.20;;;19.70;64.60;;;;;;5022818;28;20041;-74
2022/04/02 05:55:42;;;;;;;2.42;1.30;;;19.70;65.30;;;;;;5043006;28;20124;-74
2022/04/02 05:58:12;;;;;;;1.98;0.90;;;19.70;65.90;;;;;;5054448;28;20082;-74
2022/04/02 06:00:39;;;;;;;1.27;0.70;;;19.70;65.50;;;;;;5037709;28;20509;-74
2022/04/02 06:03:06;;;;;;;4.18;0.60;;;19.70;65.30;;;;;;5050176;28;20036;-74
2022/04/02 06:05:33;;;;;;;2.88;0.55;;;19.70;65.40;;;;;;5054512;28;20032;-74
2022/04/02 06:08:01;;;;;;;1.92;0.73;;;19.70;65.00;;;;;;5045922;28;20514;-74
2022/04/02 06:10:28;;;;;;;0.85;0.47;;;19.70;64.40;;;;;;5051829;28;20028;-74
2022/04/02 06:12:55;;;;;;;1.83;0.77;;;19.60;64.40;;;;;;5063126;28;20040;-74
2022/04/02 06:15:24;;;;;;;1.15;0.60;;;19.60;65.60;;;;;;5081855;28;20036;-74
2022/04/02 06:17:51;;;;;;;2.00;0.55;;;19.60;65.30;;;;;;5092019;28;20371;-74
2022/04/02 06:20:19;;;;;;;1.23;0.60;;;19.60;65.50;;;;;;5069317;28;20542;-74
2022/04/02 06:22:46;;;;;;;1.10;0.52;;;19.50;65.00;;;;;;5091333;28;20107;-75
2022/04/02 06:25:13;;;;;;;0.93;0.70;;;19.50;65.70;;;;;;5045833;28;20454;-74
2022/04/02 06:27:45;;;;;;;0.77;0.63;;;19.50;66.30;;;;;;5072473;28;20502;-74
2022/04/02 06:30:13;;;;;;;3.60;0.60;;;19.50;66.10;;;;;;5052519;28;20020;-74
2022/04/02 06:32:40;;;;;;;2.63;0.80;;;19.50;66.20;;;;;;5066567;28;20029;-73
2022/04/02 06:35:08;;;;;;;0.70;0.70;;;19.50;66.60;;;;;;5036067;28;20459;-75
2022/04/02 06:37:38;;;;;;;1.25;0.55;;;19.40;66.20;;;;;;5055334;28;20032;-75
2022/04/02 06:40:07;;;;;;;0.90;0.60;;;19.50;66.50;;;;;;5045953;28;20201;-75
2022/04/02 06:42:34;;;;;;;1.20;0.75;;;19.50;66.40;;;;;;5052853;28;20027;-75
2022/04/02 06:45:01;;;;;;;1.10;0.50;;;19.40;66.20;;;;;;5076169;28;20030;-75
2022/04/02 06:47:33;;;;;;;1.27;0.52;;;19.50;65.90;;;;;;5091615;28;20133;-75
2022/04/02 06:50:05;;;;;;;0.73;0.40;;;19.40;65.50;;;;;;5091467;28;20036;-74
2022/04/02 06:52:32;;;;;;;1.92;0.70;;;19.40;65.80;;;;;;5056514;28;20034;-74
2022/04/02 06:55:00;;;;;;;1.10;0.60;;;19.40;66.20;;;;;;5070713;28;20127;-75
2022/04/02 06:57:27;;;;;;;1.50;0.68;;;19.40;66.40;;;;;;5072636;28;20028;-73
2022/04/02 06:59:54;;;;;;;2.90;0.73;;;19.40;66.40;;;;;;5072930;28;20445;-73
2022/04/02 07:02:22;;;;;;;0.68;0.68;;;19.30;66.70;;;;;;5037745;28;20115;-74
2022/04/02 07:04:49;;;;;;;1.88;0.82;;;19.30;67.30;;;;;;5070949;28;20036;-73
2022/04/02 07:07:16;;;;;;;0.80;0.60;;;19.30;67.00;;;;;;5069562;28;20024;-73
2022/04/02 07:09:44;;;;;;;0.90;0.68;;;19.30;66.60;;;;;;5090311;28;20036;-73
2022/04/02 07:12:12;;;;;;;0.52;0.50;;;19.30;66.60;;;;;;5072536;28;20207;-75
2022/04/02 07:14:39;;;;;;;3.92;0.80;;;19.30;66.50;;;;;;5089804;28;20494;-75
2022/04/02 07:17:06;;;;;;;1.25;0.70;;;19.20;67.10;;;;;;5086061;28;20083;-72
2022/04/02 07:19:34;;;;;;;3.03;1.20;;;19.20;66.80;;;;;;5047364;28;20421;-73
2022/04/02 07:22:01;;;;;;;1.15;0.80;;;19.20;66.80;;;;;;5065866;28;20020;-75
2022/04/02 07:24:28;;;;;;;1.92;0.93;;;19.20;66.90;;;;;;5090391;28;20081;-76
2022/04/02 07:26:56;;;;;;;0.98;0.82;;;19.20;67.00;;;;;;5072541;28;20032;-75
2022/04/02 07:29:23;;;;;;;2.13;0.98;;;19.20;66.90;;;;;;5070786;28;20036;-74
2022/04/02 07:31:51;;;;;;;1.27;1.00;;;19.20;67.10;;;;;;5046976;28;20078;-73
2022/04/02 07:34:18;;;;;;;2.40;1.20;;;19.20;66.30;;;;;;5087287;28;20052;-72
2022/04/02 07:37:22;;;;;;;1.02;0.93;;;19.20;66.40;;;;;;5076920;28;20291;-73
2022/04/02 07:39:55;;;;;;;1.23;0.68;;;19.20;66.70;;;;;;5074925;28;20081;-71
2022/04/02 07:42:33;;;;;;;3.42;1.10;;;19.10;66.60;;;;;;5087587;28;20101;-76
2022/04/02 07:45:07;;;;;;;1.00;0.90;;;19.10;67.00;;;;;;5066395;28;20036;-74
2022/04/02 14:14:23;;;;;;;2.38;1.60;;;16.80;77.20;;;;;;5097706;28;20058;-78
2022/04/02 14:17:04;;;;;;;3.90;2.08;;;16.80;77.60;;;;;;5091884;28;20053;-78
2022/04/02 14:19:43;;;;;;;3.55;1.70;;;16.70;77.60;;;;;;5110523;28;20110;-78
2022/04/02 14:22:16;;;;;;;3.13;1.70;;;16.70;77.70;;;;;;5094723;28;20048;-78
2022/04/02 14:24:55;;;;;;;3.47;1.85;;;16.70;77.30;;;;;;5059122;28;20036;-78
2022/04/02 14:27:43;;;;;;;4.80;1.85;;;16.70;77.50;;;;;;5091825;28;20038;-78
2022/04/02 14:30:24;;;;;;;2.10;1.60;;;16.70;77.70;;;;;;5109744;28;20038;-78
2022/04/02 14:33:10;;;;;;;1.60;1.17;;;16.70;77.50;;;;;;5075866;28;20028;-78
2022/04/02 14:35:58;;;;;;;2.72;1.05;;;16.70;77.10;;;;;;5108668;28;20031;-78
2022/04/02 14:38:40;;;;;;;2.35;1.15;;;16.70;76.70;;;;;;5092491;28;20031;-78
2022/04/02 14:41:08;;;;;;;1.90;1.08;;;16.70;77.30;;;;;;5109999;28;20103;-78
2022/04/02 14:44:08;;;;;;;1.58;0.88;;;16.70;77.20;;;;;;5090825;28;20028;-78
2022/04/02 14:47:09;;;;;;;1.95;1.13;;;16.70;76.50;;;;;;5090979;28;20036;-79
2022/04/02 14:49:54;;;;;;;2.50;1.40;;;16.70;77.00;;;;;;5089272;28;20491;-78
2022/04/02 14:52:54;;;;;;;3.35;2.45;;;16.70;77.50;;;;;;5087055;28;20042;-79
2022/04/02 14:55:30;;;;;;;;;;;16.70;76.90;;;;;;5056671;28;20420;-78
2022/04/02 14:58:21;;;;;;;1.35;1.10;;;16.70;76.20;;;;;;5090494;28;19919;-79
2022/04/02 15:01:04;;;;;;;3.55;1.30;;;16.70;76.30;;;;;;5090987;28;20508;-78
2022/04/02 15:03:50;;;;;;;2.17;1.17;;;16.70;76.60;;;;;;5073750;28;20036;-78
2022/04/02 15:06:58;;;;;;;2.83;0.90;;;16.60;76.30;;;;;;5107471;28;20031;-78
2022/04/02 15:09:44;;;;;;;2.58;0.90;;;16.60;76.10;;;;;;5057955;28;20493;-78
2022/04/02 15:12:11;;;;;;;0.85;0.70;;;16.60;76.60;;;;;;5109905;28;20031;-78
2022/04/02 15:14:39;;;;;;;1.67;1.05;;;16.60;76.30;;;;;;5089576;28;20028;-78
2022/04/02 15:17:28;;;;;;;0.88;0.80;;;16.60;76.50;;;;;;5090907;28;20035;-78
2022/04/02 15:20:02;;;;;;;1.27;0.70;;;16.50;76.80;;;;;;5090956;28;20036;-78
2022/04/02 15:22:29;;;;;;;0.85;0.63;;;16.50;76.30;;;;;;5109118;28;20030;-78
2022/04/02 15:25:15;;;;;;;0.60;0.60;;;16.50;75.90;;;;;;5110173;28;20035;-79
2022/04/02 15:27:55;;;;;;;1.23;0.82;;;16.50;76.80;;;;;;5109397;28;20028;-78
2022/04/02 15:30:26;;;;;;;1.00;0.90;;;16.50;76.60;;;;;;5101625;28;20040;-78
2022/04/02 15:33:11;;;;;;;1.38;1.02;;;16.50;76.60;;;;;;5090755;28;20122;-78
2022/04/02 15:35:54;;;;;;;1.88;0.80;;;16.50;77.20;;;;;;5109706;28;20051;-78
2022/04/02 15:38:35;;;;;;;1.20;0.80;;;16.40;77.00;;;;;;5091044;28;20136;-78
2022/04/02 15:41:07;;;;;;;0.73;0.60;;;16.40;77.90;;;;;;5072858;28;20415;-78
2022/04/02 15:43:39;;;;;;;1.15;0.80;;;16.40;78.10;;;;;;5106828;28;20063;-78
2022/04/02 15:46:30;;;;;;;0.82;0.82;;;16.30;78.10;;;;;;5089693;28;20039;-78
2022/04/02 15:49:11;;;;;;;0.93;0.70;;;16.20;78.00;;;;;;5108341;28;20103;-77
2022/04/02 15:51:53;;;;;;;1.52;0.90;;;16.20;79.00;;;;;;5108697;28;20026;-77
2022/04/02 15:54:38;;;;;;;1.00;0.90;;;16.20;79.30;;;;;;5109386;28;20043;-77
2022/04/02 15:57:05;;;;;;;1.17;0.85;;;16.20;78.60;;;;;;5091199;28;20521;-77
2022/04/02 15:59:33;;;;;;;1.15;0.88;;;16.20;78.30;;;;;;5107651;28;20034;-77
2022/04/02 16:02:00;;;;;;;2.67;0.52;;;16.20;78.70;;;;;;5074119;28;20036;-77
2022/04/02 16:04:27;;;;;;;0.93;0.50;;;16.20;78.30;;;;;;5089442;28;20534;-77
2022/04/02 16:06:55;;;;;;;1.15;0.50;;;16.20;78.00;;;;;;5090232;28;20032;-77
2022/04/02 16:09:41;;;;;;;0.77;0.68;;;16.20;78.60;;;;;;5089292;28;20390;-77
2022/04/02 16:12:35;;;;;;;1.50;0.68;;;16.20;77.60;;;;;;5108578;28;20486;-77
2022/04/02 16:15:23;;;;;;;4.78;0.88;;;16.20;77.60;;;;;;5086604;28;20047;-78
2022/04/02 16:18:12;;;;;;;1.33;0.70;;;16.20;77.60;;;;;;5116444;22;20048;-66
2022/04/02 16:20:54;;;;;;;2.20;0.80;;;16.20;77.40;;;;;;5097768;28;20036;-66
2022/04/02 16:23:25;;;;;;;0.90;0.63;;;16.20;78.00;;;;;;5092422;28;20023;-66
2022/04/02 16:25:54;;;;;;;1.20;0.90;;;16.10;78.20;;;;;;5091244;28;20033;-66
2022/04/02 16:28:28;;;;;;;1.50;0.75;;;16.10;78.20;;;;;;5092558;28;20059;-66
2022/04/02 16:30:56;;;;;;;2.95;0.77;;;16.10;78.30;;;;;;5090033;28;20394;-66
2022/04/02 16:33:23;;;;;;;0.85;0.60;;;16.10;78.60;;;;;;5080634;28;20422;-66
2022/04/02 16:36:10;;;;;;;0.80;0.60;;;16.00;78.60;;;;;;5097857;28;20093;-66
2022/04/02 16:38:57;;;;;;;1.38;0.75;;;16.10;77.80;;;;;;5097220;28;20098;-66
2022/04/02 16:41:38;;;;;;;1.00;0.70;;;16.00;77.40;;;;;;5096082;28;20389;-66
2022/04/02 16:44:25;;;;;;;1.13;0.60;;;16.00;78.10;;;;;;5095125;28;20035;-66
2022/04/02 16:46:55;;;;;;;1.55;0.73;;;16.00;78.10;;;;;;5097649;28;20039;-66
2022/04/02 16:49:23;;;;;;;2.90;0.47;;;16.00;77.60;;;;;;5099658;28;20099;-66
2022/04/02 16:51:50;;;;;;;1.10;0.65;;;16.00;77.80;;;;;;5109133;28;20035;-66
2022/04/02 16:54:17;;;;;;;4.97;1.13;;;16.00;77.60;;;;;;5106362;28;20051;-66
2022/04/02 16:56:44;;;;;;;1.08;0.63;;;16.00;77.00;;;;;;5098514;28;20085;-66
2022/04/02 16:59:13;;;;;;;0.73;0.55;;;16.00;77.10;;;;;;5103747;28;20486;-66
2022/04/02 17:01:44;;;;;;;4.38;0.70;;;16.00;77.80;;;;;;5109042;28;20088;-66
2022/04/02 17:04:22;;;;;;;0.68;0.68;;;16.10;78.00;;;;;;5102274;28;20031;-66
2022/04/02 17:06:49;;;;;;;0.60;0.60;;;16.10;77.70;;;;;;5093431;27;20114;-66
2022/04/02 17:09:25;;;;;;;12.65;1.08;;;16.00;77.20;;;;;;5074616;28;20031;-67
2022/04/02 17:11:52;;;;;;;2.03;0.45;;;16.00;77.40;;;;;;5094762;28;20034;-66
2022/04/02 17:14:39;;;;;;;0.52;0.52;;;16.00;77.60;;;;;;5078695;28;20048;-67
2022/04/02 17:17:07;;;;;;;1.00;0.73;;;16.00;77.50;;;;;;5099642;27;20055;-66
2022/04/02 17:19:35;;;;;;;1.25;0.65;;;16.00;77.90;;;;;;5069119;28;20119;-66
2022/04/02 17:22:07;;;;;;;0.65;0.65;;;15.90;77.80;;;;;;5099550;28;20615;-66
2022/04/02 17:24:35;;;;;;;3.80;0.60;;;16.00;78.20;;;;;;5099821;27;20039;-66
2022/04/02 17:27:10;;;;;;;1.65;0.70;;;16.00;78.00;;;;;;5125244;27;20031;-66
2022/04/02 17:29:37;;;;;;;0.90;0.60;;;15.90;77.90;;;;;;5116012;27;20093;-66
2022/04/02 17:32:17;;;;;;;2.08;0.70;;;15.90;77.70;;;;;;5099390;27;20028;-66
2022/04/02 17:34:58;;;;;;;0.45;0.38;;;16.00;77.70;;;;;;5097642;27;20187;-66
2022/04/02 17:37:34;;;;;;;0.73;0.60;;;15.90;77.40;;;;;;5087107;27;20489;-66
2022/04/02 17:40:04;;;;;;;2.97;0.70;;;15.90;77.70;;;;;;5123931;27;20035;-66
2022/04/02 17:43:00;;;;;;;0.60;0.55;;;15.90;78.10;;;;;;5103031;27;20027;-66
2022/04/02 17:45:32;;;;;;;0.93;0.73;;;15.90;78.40;;;;;;5102232;27;20516;-66
2022/04/02 17:48:22;;;;;;;0.80;0.35;;;15.90;77.90;;;;;;5124462;27;20125;-66
2022/04/02 17:51:03;;;;;;;1.65;0.60;;;16.00;78.00;;;;;;5121002;27;20031;-66
2022/04/02 17:53:37;;;;;;;1.25;0.55;;;15.90;78.10;;;;;;5081603;28;20118;-66
2022/04/02 17:56:09;;;;;;;1.48;0.40;;;15.90;78.00;;;;;;5103786;27;20495;-66
2022/04/02 17:58:37;;;;;;;2.55;0.70;;;15.90;78.40;;;;;;5103059;27;20075;-66
2022/04/02 18:01:05;;;;;;;1.33;0.60;;;15.80;78.10;;;;;;5120649;27;20437;-66
2022/04/02 18:03:41;;;;;;;0.63;0.32;;;15.80;78.20;;;;;;5065770;28;20038;-66
2022/04/02 18:06:12;;;;;;;1.23;0.70;;;15.80;78.10;;;;;;5122917;27;20106;-66
2022/04/02 18:08:41;;;;;;;;;;;15.80;78.10;;;;;;5097560;27;20031;-66
2022/04/02 18:11:08;;;;;;;3.30;0.88;;;15.80;78.00;;;;;;5110773;27;19912;-67
2022/04/02 18:13:39;;;;;;;0.80;0.57;;;15.80;78.00;;;;;;5097234;27;20692;-66
2022/04/02 18:16:06;;;;;;;;;;;15.90;77.90;;;;;;5102734;27;20138;-66
2022/04/02 18:18:35;;;;;;;1.02;0.60;;;15.90;78.00;;;;;;5123968;27;19916;-66
2022/04/02 18:21:03;;;;;;;4.40;0.70;;;15.80;77.90;;;;;;5097305;28;20074;-66
2022/04/02 18:23:30;;;;;;;1.98;0.50;;;15.80;78.10;;;;;;5084932;27;20027;-66
2022/04/02 18:25:58;;;;;;;0.68;0.40;;;15.80;78.00;;;;;;5114946;27;20027;-66
2022/04/02 18:28:25;;;;;;;1.15;0.60;;;15.80;78.50;;;;;;5118976;27;20084;-65
2022/04/02 18:30:52;;;;;;;0.75;0.60;;;15.80;78.50;;;;;;5091824;27;20066;-66
2022/04/02 18:33:20;;;;;;;1.10;0.60;;;15.80;77.60;;;;;;5108733;27;20110;-66
2022/04/02 18:35:47;;;;;;;2.65;0.50;;;15.80;77.80;;;;;;5096515;28;20339;-66
2022/04/02 18:38:14;;;;;;;2.97;0.57;;;15.70;77.70;;;;;;5090397;28;20118;-66
2022/04/02 18:40:41;;;;;;;0.95;0.60;;;15.70;78.20;;;;;;5089609;27;20031;-66
2022/04/02 18:43:12;;;;;;;1.17;0.50;;;15.70;78.00;;;;;;5091045;28;20428;-66
2022/04/02 18:45:40;;;;;;;0.57;0.55;;;15.70;78.40;;;;;;5102317;27;20049;-66
2022/04/02 18:48:07;;;;;;;2.63;0.80;;;15.70;78.50;;;;;;5110682;27;20046;-66
2022/04/02 18:50:35;;;;;;;1.48;0.70;;;15.70;78.90;;;;;;5084494;28;20054;-66
2022/04/02 18:53:02;;;;;;;0.75;0.60;;;15.70;78.70;;;;;;5088839;27;20062;-66
2022/04/02 18:55:29;;;;;;;0.68;0.60;;;15.70;78.40;;;;;;5097986;28;20041;-66
2022/04/02 18:57:56;;;;;;;1.45;0.60;;;15.70;78.50;;;;;;5097285;27;20553;-66
2022/04/02 19:00:24;;;;;;;2.88;0.60;;;15.70;78.40;;;;;;5096675;28;20040;-66
2022/04/02 19:02:51;;;;;;;0.50;0.50;;;15.70;78.20;;;;;;5099465;27;20370;-65
2022/04/02 19:05:18;;;;;;;0.47;0.40;;;15.70;78.20;;;;;;5107974;27;20085;-66
2022/04/02 19:07:46;;;;;;;1.20;0.70;;;15.60;78.50;;;;;;5127184;27;20512;-66
2022/04/02 19:10:14;;;;;;;2.55;0.65;;;15.70;78.40;;;;;;5116012;27;20032;-66
2022/04/02 19:12:41;;;;;;;1.45;0.73;;;15.60;78.70;;;;;;5105557;27;20466;-65
2022/04/02 19:15:08;;;;;;;1.73;0.65;;;15.70;78.70;;;;;;5101907;27;20043;-66
2022/04/02 19:17:36;;;;;;;1.33;0.73;;;15.60;78.40;;;;;;5114935;27;20089;-66
2022/04/02 19:20:05;;;;;;;1.50;0.60;;;15.50;78.10;;;;;;5081657;27;20035;-67
2022/04/02 19:22:34;;;;;;;0.68;0.50;;;15.60;78.10;;;;;;5081466;27;20036;-66
2022/04/02 19:25:02;;;;;;;1.70;0.60;;;15.60;77.80;;;;;;5086248;28;20148;-67
2022/04/02 19:27:29;;;;;;;0.57;0.50;;;15.50;78.30;;;;;;5099324;27;20381;-66
2022/04/02 19:29:56;;;;;;;0.68;0.60;;;15.60;78.30;;;;;;5097193;28;20031;-66
2022/04/02 19:32:24;;;;;;;3.22;0.80;;;15.60;78.50;;;;;;5095493;27;20031;-67
2022/04/02 19:34:51;;;;;;;0.82;0.73;;;15.50;78.40;;;;;;5095869;28;20525;-65
2022/04/02 19:37:18;;;;;;;0.95;0.63;;;15.50;78.10;;;;;;5109754;28;20378;-66
2022/04/02 19:39:45;;;;;;;0.50;0.50;;;15.50;79.00;;;;;;5080172;28;20116;-65
2022/04/02 19:42:12;;;;;;;1.08;0.60;;;15.50;78.60;;;;;;5112114;28;20024;-65
2022/04/02 19:44:40;;;;;;;0.95;0.45;;;15.50;78.70;;;;;;5100415;27;20092;-65
2022/04/02 19:47:07;;;;;;;1.10;0.57;;;15.50;78.90;;;;;;5110942;27;20069;-68
2022/04/02 19:49:34;;;;;;;0.90;0.75;;;15.50;79.00;;;;;;5102631;28;20120;-66
2022/04/02 19:52:01;;;;;;;1.17;0.77;;;15.50;78.70;;;;;;5100724;28;20027;-65
2022/04/02 19:54:30;;;;;;;1.23;0.73;;;15.50;79.00;;;;;;5098549;28;20392;-65
2022/04/02 19:56:57;;;;;;;2.25;0.80;;;15.50;79.00;;;;;;5106181;28;20425;-67
2022/04/02 19:59:26;;;;;;;1.63;0.60;;;15.50;78.70;;;;;;5083572;28;20430;-65
2022/04/02 20:01:53;;;;;;;6.40;0.68;;;15.40;78.80;;;;;;5106494;28;20027;-65
2022/04/02 20:04:20;;;;;;;0.73;0.52;;;15.40;79.40;;;;;;5116586;28;20027;-65
2022/04/02 20:06:47;;;;;;;2.03;0.70;;;15.40;78.60;;;;;;5096120;28;20038;-65
2022/04/02 20:09:15;;;;;;;0.75;0.50;;;15.40;78.70;;;;;;5080773;28;20054;-67
2022/04/02 20:11:42;;;;;;;0.57;0.57;;;15.40;78.80;;;;;;5112152;28;20032;-68
2022/04/02 20:14:09;;;;;;;1.80;0.88;;;15.40;78.90;;;;;;5088902;28;20055;-65
2022/04/02 20:16:36;;;;;;;0.60;0.60;;;15.40;79.10;;;;;;5087517;28;20493;-68
2022/04/02 20:19:03;;;;;;;1.92;0.60;;;15.40;79.70;;;;;;5110433;28;20051;-67
2022/04/02 20:21:31;;;;;;;1.17;0.80;;;15.40;79.90;;;;;;5121309;28;20137;-65
2022/04/02 20:23:58;;;;;;;1.27;0.70;;;15.40;79.70;;;;;;5130827;28;20558;-67
2022/04/02 20:26:25;;;;;;;1.17;0.70;;;15.40;80.20;;;;;;5096999;28;20047;-65
2022/04/02 20:28:52;;;;;;;2.58;0.65;;;15.40;79.90;;;;;;5090460;28;20032;-68
2022/04/02 20:31:20;;;;;;;1.98;0.75;;;15.40;80.00;;;;;;5074148;28;20024;-67
2022/04/02 20:33:47;;;;;;;0.57;0.55;;;15.40;79.80;;;;;;5090000;28;20036;-65
2022/04/02 20:36:14;;;;;;;0.85;0.70;;;15.40;79.70;;;;;;5073565;28;20032;-64
2022/04/02 20:38:42;;;;;;;0.73;0.60;;;15.40;79.90;;;;;;5101048;28;20019;-64
2022/04/02 20:41:09;;;;;;;1.70;0.68;;;15.50;80.00;;;;;;5089866;28;20566;-65
2022/04/02 20:43:36;;;;;;;1.92;1.10;;;15.50;80.20;;;;;;5109816;28;20441;-68
2022/04/02 20:46:03;;;;;;;2.70;0.90;;;15.50;80.30;;;;;;5082136;28;20034;-64
2022/04/02 20:48:31;;;;;;;2.13;1.45;;;15.50;80.70;;;;;;5089401;28;20036;-65
2022/04/02 20:50:58;;;;;;;2.60;1.30;;;15.50;80.90;;;;;;5090370;28;20076;-64
2022/04/02 20:53:25;;;;;;;6.05;3.33;;;15.50;81.10;;;;;;5090916;28;20118;-65
2022/04/02 20:55:52;;;;;;;20.05;7.25;;;15.50;80.80;;;;;;5087110;28;20424;-64
2022/04/02 20:58:20;;;;;;;15.80;6.80;;;15.60;81.20;;;;;;5075705;28;20066;-65
2022/04/02 21:00:52;;;;;;;20.13;8.95;;;15.60;81.50;;;;;;5108285;28;20449;-65
2022/04/02 21:03:19;;;;;;;7.18;4.05;;;15.60;81.40;;;;;;5112054;27;20031;-65
2022/04/02 21:05:49;;;;;;;4.70;2.47;;;15.60;81.30;;;;;;5099326;27;20040;-64
2022/04/02 21:08:17;;;;;;;2.10;1.60;;;15.60;81.40;;;;;;5095092;28;20035;-64
2022/04/02 21:10:44;;;;;;;1.63;1.20;;;15.70;81.50;;;;;;5092718;27;20437;-65
2022/04/02 21:13:11;;;;;;;1.42;0.75;;;15.70;81.50;;;;;;5093271;28;20461;-64